Time;durP1;ratioP1;P1;durP2;ratioP2;P2;SDS_P1;SDS_P2;PMS_P1;PMS_P2;Temp;Humidity;BMP_temperature;BMP_pressure;BME280_temperature;BME280_humidity;BME280_pressure;Samples;Min_cycle;Max_cycle;Signal;HPM_P1;HPM_P2
2024/01/30 00:01:55;;;;;;;41.88;20.23;;;;;;;29.35;62.84;101391.06;5036190;28;66531;-41
2024/01/30 00:04:26;;;;;;;55.17;24.35;;;;;;;29.39;62.94;101382.38;5053745;28;69726;-41
2024/01/30 00:06:57;;;;;;;54.63;25.17;;;;;;;29.40;62.86;101389.44;5046417;28;65725;-41
2024/01/30 00:09:27;;;;;;;56.28;25.85;;;;;;;29.50;63.74;101393.66;5043050;28;70660;-41
2024/01/30 00:11:59;;;;;;;61.88;25.80;;;;;;;29.50;63.33;101388.25;5023075;28;66203;-41
2024/01/30 00:14:29;;;;;;;63.20;26.52;;;;;;;29.52;64.20;101391.59;5034710;28;71788;-40
2024/01/30 00:17:00;;;;;;;63.72;27.58;;;;;;;29.39;64.93;101370.72;5032387;28;66239;-39
2024/01/30 00:19:31;;;;;;;61.17;27.70;;;;;;;29.59;60.54;101401.44;5037295;28;70025;-41
2024/01/30 00:22:02;;;;;;;42.67;24.33;;;;;;;29.54;60.11;101416.56;5035676;28;65106;-40
2024/01/30 00:24:33;;;;;;;44.55;25.05;;;;;;;29.55;59.78;101419.06;5028141;28;69269;-40
2024/01/30 00:27:04;;;;;;;46.72;25.08;;;;;;;29.53;59.65;101414.88;5037078;28;67011;-42
2024/01/30 00:29:35;;;;;;;46.42;26.50;;;;;;;29.60;59.45;101426.59;5034394;28;70209;-42
2024/01/30 00:32:06;;;;;;;49.50;25.77;;;;;;;29.64;60.06;101419.75;5026869;28;66220;-41
2024/01/30 00:34:36;;;;;;;44.33;25.80;;;;;;;29.57;59.52;101418.88;5066369;28;69042;-41
2024/01/30 00:37:08;;;;;;;51.10;27.25;;;;;;;29.64;59.42;101422.47;5053499;28;66976;-40
2024/01/30 00:39:38;;;;;;;46.35;26.30;;;;;;;29.66;59.71;101423.09;5037452;28;71231;-42
2024/01/30 00:42:10;;;;;;;46.83;26.17;;;;;;;29.70;59.71;101427.09;5033786;28;66183;-40
2024/01/30 00:44:41;;;;;;;47.25;26.60;;;;;;;29.70;59.40;101424.41;5042856;28;70012;-41
2024/01/30 00:47:11;;;;;;;46.33;26.48;;;;;;;29.69;59.27;101420.00;5028707;28;65500;-41
2024/01/30 00:49:42;;;;;;;47.85;25.95;;;;;;;29.69;59.45;101424.59;5031624;28;70116;-41
2024/01/30 00:52:13;;;;;;;52.85;26.23;;;;;;;29.57;59.72;101408.06;5034330;28;65767;-43
2024/01/30 00:54:44;;;;;;;42.08;24.77;;;;;;;29.80;59.48;101438.38;5036004;28;70678;-41
2024/01/30 00:57:14;;;;;;;45.42;24.40;;;;;;;29.79;59.28;101431.31;5024089;28;66693;-42
2024/01/30 00:59:45;;;;;;;40.72;24.67;;;;;;;29.85;59.76;101443.19;5031808;28;70532;-40
2024/01/30 01:02:17;;;;;;;37.92;23.95;;;;;;;29.57;59.44;101399.94;5030844;28;66548;-39
2024/01/30 01:04:48;;;;;;;40.75;22.35;;;;;;;29.88;60.10;101442.78;5039217;28;70064;-39
2024/01/30 01:07:18;;;;;;;38.08;22.52;;;;;;;29.91;60.08;101455.06;5032888;28;66216;-42
2024/01/30 01:09:49;;;;;;;36.53;22.38;;;;;;;29.94;59.83;101454.66;5026069;28;70382;-44
2024/01/30 01:12:20;;;;;;;37.78;22.27;;;;;;;29.95;60.14;101457.19;5025775;28;66234;-40
2024/01/30 01:14:50;;;;;;;38.90;21.98;;;;;;;29.94;60.47;101452.78;5037896;28;70650;-39
2024/01/30 01:17:21;;;;;;;33.58;21.50;;;;;;;29.98;59.99;101455.97;5032993;28;65814;-40
2024/01/30 01:19:52;;;;;;;42.40;21.50;;;;;;;30.01;60.13;101467.19;5028110;28;70275;-40
2024/01/30 01:22:23;;;;;;;33.85;20.27;;;;;;;29.98;60.55;101461.38;5030314;28;66268;-40
2024/01/30 01:24:53;;;;;;;36.38;21.17;;;;;;;30.04;60.24;101472.22;5029437;28;70358;-41
2024/01/30 01:27:24;;;;;;;31.17;20.08;;;;;;;30.06;60.43;101470.16;5040497;28;65995;-42
2024/01/30 01:29:55;;;;;;;32.08;19.45;;;;;;;30.06;60.48;101472.00;5028617;28;68980;-42
2024/01/30 01:32:26;;;;;;;31.65;19.40;;;;;;;30.09;59.89;101474.31;5031989;28;65741;-41
2024/01/30 01:34:56;;;;;;;33.80;18.95;;;;;;;30.11;60.19;101466.00;5044699;28;70457;-42
2024/01/30 01:37:28;;;;;;;33.67;19.90;;;;;;;30.04;60.36;101457.84;5042154;28;67409;-40
2024/01/30 01:40:00;;;;;;;29.23;17.77;;;;;;;29.37;60.19;101352.00;5027087;28;69283;-41
2024/01/30 01:42:32;;;;;;;26.58;18.25;;;;;;;30.10;60.07;101475.97;5032141;28;66038;-40
2024/01/30 01:45:03;;;;;;;30.02;18.45;;;;;;;30.16;60.54;101483.28;5038466;28;69842;-42
2024/01/30 01:47:34;;;;;;;26.60;18.08;;;;;;;30.15;60.07;101481.63;5027741;28;66102;-40
2024/01/30 01:50:05;;;;;;;27.33;18.15;;;;;;;30.10;60.26;101465.16;5038313;28;71439;-40
2024/01/30 01:52:37;;;;;;;27.00;18.23;;;;;;;30.20;60.27;101487.28;5031894;28;66470;-40
2024/01/30 01:55:07;;;;;;;;;;;;;;;29.90;61.70;101485.88;5021825;28;69381;-40
2024/01/30 01:57:39;;;;;;;23.23;17.30;;;;;;;30.17;60.58;101490.38;5040246;28;66730;-41
2024/01/30 02:00:12;;;;;;;23.92;18.55;;;;;;;30.25;60.47;101489.38;5036827;28;69817;-40
2024/01/30 02:02:45;;;;;;;30.35;17.50;;;;;;;30.20;60.44;101475.59;5036492;28;66149;-41
2024/01/30 02:05:17;;;;;;;24.60;18.38;;;;;;;30.26;60.59;101480.25;5021804;28;69251;-40
2024/01/30 02:07:48;;;;;;;28.42;19.40;;;;;;;30.28;60.90;101483.56;5022919;28;66587;-41
2024/01/30 02:10:18;;;;;;;25.15;17.90;;;;;;;30.30;60.47;101481.50;5047270;28;68737;-40
2024/01/30 02:12:50;;;;;;;30.38;17.08;;;;;;;30.32;60.46;101486.72;5021797;28;67722;-40
2024/01/30 02:15:20;;;;;;;30.52;17.73;;;;;;;30.33;60.66;101489.22;5030935;28;71490;-41
2024/01/30 02:17:51;;;;;;;25.45;17.38;;;;;;;30.37;60.45;101489.63;5021889;28;65896;-40
2024/01/30 02:20:28;;;;;;;26.25;17.60;;;;;;;30.38;60.67;101483.22;5034439;28;69269;-42
2024/01/30 02:23:01;;;;;;;23.10;17.70;;;;;;;30.34;60.46;101481.94;5042388;28;66696;-40
2024/01/30 02:25:46;;;;;;;26.40;16.75;;;;;;;30.18;60.83;101462.28;5025945;28;69681;-41
2024/01/30 02:28:17;;;;;;;20.80;17.08;;;;;;;30.42;60.42;101490.72;5030064;28;66154;-39
2024/01/30 02:30:48;;;;;;;23.00;15.88;;;;;;;30.45;60.83;101486.75;5031200;28;70586;-40
2024/01/30 02:33:19;;;;;;;24.73;17.42;;;;;;;30.47;60.73;101490.09;5027418;28;66590;-41
2024/01/30 02:35:50;;;;;;;20.00;16.05;;;;;;;30.49;60.99;101485.34;5025478;28;69197;-40
2024/01/30 02:38:20;;;;;;;23.23;16.33;;;;;;;30.34;60.40;101462.97;5025364;28;66535;-42
2024/01/30 02:40:51;;;;;;;20.40;15.50;;;;;;;30.53;60.67;101489.28;5042311;28;70029;-40
2024/01/30 02:43:22;;;;;;;22.77;16.25;;;;;;;30.53;60.69;101486.56;5026489;28;67868;-40
2024/01/30 02:45:53;;;;;;;23.63;16.08;;;;;;;30.56;61.07;101486.16;5023893;28;69642;-40
2024/01/30 02:48:23;;;;;;;21.70;16.15;;;;;;;30.54;60.76;101477.44;5014139;28;65055;-40
2024/01/30 02:50:54;;;;;;;23.77;15.82;;;;;;;30.61;60.48;101488.28;5031137;28;70518;-40
2024/01/30 02:53:25;;;;;;;18.73;15.20;;;;;;;30.56;61.09;101480.75;5031799;28;66256;-41
2024/01/30 02:55:56;;;;;;;17.75;14.90;;;;;;;30.64;60.57;101488.69;5033090;28;70543;-40
2024/01/30 02:58:26;;;;;;;16.20;14.55;;;;;;;30.57;60.75;101477.03;5037556;28;65382;-40
2024/01/30 03:00:57;;;;;;;23.83;15.30;;;;;;;30.66;60.58;101489.34;5022629;28;71230;-40
2024/01/30 03:03:28;;;;;;;18.88;15.90;;;;;;;30.68;60.84;101483.72;5026053;28;65727;-42
2024/01/30 03:05:59;;;;;;;18.98;15.13;;;;;;;30.72;60.59;101482.25;5026736;28;70449;-40
2024/01/30 03:08:29;;;;;;;18.30;14.57;;;;;;;30.67;60.88;101465.78;5034849;28;66368;-40
2024/01/30 03:11:00;;;;;;;25.52;16.10;;;;;;;30.75;61.16;101472.91;5027893;28;69988;-42
2024/01/30 03:13:31;;;;;;;18.75;14.63;;;;;;;30.78;60.90;101472.47;5026605;28;66704;-41
2024/01/30 03:16:01;;;;;;;15.50;13.60;;;;;;;30.79;61.02;101468.75;5042826;28;69474;-41
2024/01/30 03:18:32;;;;;;;18.75;14.30;;;;;;;30.81;60.85;101466.69;5026210;28;65494;-40
2024/01/30 03:21:03;;;;;;;16.05;13.43;;;;;;;30.77;60.50;101460.81;5024251;28;70518;-41
2024/01/30 03:23:34;;;;;;;21.30;14.80;;;;;;;30.81;60.83;101453.97;5024384;28;66200;-41
2024/01/30 03:26:06;;;;;;;16.85;14.32;;;;;;;30.87;60.80;101465.84;5027318;28;70409;-42
2024/01/30 03:28:37;;;;;;;16.77;13.13;;;;;;;30.90;60.77;101465.47;5017435;28;66094;-43
2024/01/30 03:31:09;;;;;;;17.33;14.67;;;;;;;30.86;60.99;101453.34;5058900;28;70119;-42
2024/01/30 03:33:40;;;;;;;15.68;14.00;;;;;;;30.90;60.70;101454.63;5045274;28;66336;-41
2024/01/30 03:36:11;;;;;;;16.60;13.13;;;;;;;30.96;60.85;101459.22;5044667;28;70676;-42
2024/01/30 03:38:42;;;;;;;16.73;14.35;;;;;;;30.98;60.96;101448.16;5028362;28;65864;-43
2024/01/30 03:41:13;;;;;;;17.30;13.02;;;;;;;30.99;60.94;101452.56;5056168;28;70179;-41
2024/01/30 03:43:45;;;;;;;15.93;12.88;;;;;;;31.01;60.52;101440.47;5031171;28;65928;-42
2024/01/30 03:46:17;;;;;;;16.83;13.95;;;;;;;31.03;60.42;101442.94;5022531;28;68914;-42
2024/01/30 03:48:49;;;;;;;16.83;13.05;;;;;;;31.02;60.68;101431.28;5040413;28;66666;-40
2024/01/30 03:51:20;;;;;;;16.30;12.97;;;;;;;31.04;60.43;101436.50;5047788;28;70946;-43
2024/01/30 03:53:51;;;;;;;14.43;12.88;;;;;;;31.05;60.40;101428.16;5030369;28;66182;-40
2024/01/30 03:56:22;;;;;;;17.25;12.95;;;;;;;31.11;60.76;101429.19;5024792;28;70583;-40
2024/01/30 03:58:53;;;;;;;13.30;11.95;;;;;;;31.13;60.72;101427.94;5034809;28;67594;-42
2024/01/30 04:01:24;;;;;;;16.90;13.50;;;;;;;31.12;60.69;101410.03;5044207;28;70416;-41
2024/01/30 04:03:56;;;;;;;13.82;12.52;;;;;;;31.11;60.39;101411.06;5008997;28;66090;-41
2024/01/30 04:06:27;;;;;;;15.05;13.27;;;;;;;31.19;60.61;101407.31;5043299;28;69290;-41
2024/01/30 04:08:58;;;;;;;15.75;13.43;;;;;;;31.24;60.49;101412.94;5045024;28;65461;-40
2024/01/30 04:11:28;;;;;;;13.75;12.48;;;;;;;31.26;60.56;101399.16;5037330;28;70178;-40
2024/01/30 04:13:59;;;;;;;14.02;12.50;;;;;;;31.23;60.48;101394.16;5040754;28;65669;-40
2024/01/30 04:16:30;;;;;;;14.25;12.55;;;;;;;31.10;60.34;101360.63;5026937;28;70410;-40
2024/01/30 04:19:01;;;;;;;13.48;12.13;;;;;;;31.32;60.34;101392.91;5038707;28;66071;-40
2024/01/30 04:21:31;;;;;;;15.40;13.00;;;;;;;31.32;60.11;101384.78;5029851;28;71114;-40
2024/01/30 04:24:02;;;;;;;16.05;12.68;;;;;;;31.32;59.96;101373.94;5037889;28;65861;-39
2024/01/30 04:26:33;;;;;;;14.60;12.93;;;;;;;31.37;60.20;101374.16;5039964;28;69653;-40
2024/01/30 04:29:03;;;;;;;15.50;12.38;;;;;;;31.38;59.90;101370.41;5041999;28;66742;-40
2024/01/30 04:31:37;;;;;;;14.98;11.70;;;;;;;31.06;60.18;101315.19;5047304;28;70508;-39
2024/01/30 04:34:07;;;;;;;12.88;11.52;;;;;;;31.32;60.13;101344.13;5032503;28;65882;-39
2024/01/30 04:36:38;;;;;;;15.10;12.02;;;;;;;31.43;60.03;101359.75;5037527;28;70401;-39
2024/01/30 04:39:09;;;;;;;16.83;12.77;;;;;;;31.38;59.72;101341.41;5047427;28;66280;-40
2024/01/30 04:41:40;;;;;;;13.82;12.38;;;;;;;31.44;59.71;101350.56;5048346;28;70561;-40
2024/01/30 04:44:11;;;;;;;15.38;11.60;;;;;;;31.44;59.71;101347.88;5026607;28;65846;-39
2024/01/30 04:46:42;;;;;;;13.23;11.52;;;;;;;31.45;59.62;101338.66;5048812;28;69516;-41
2024/01/30 04:49:13;;;;;;;12.60;11.35;;;;;;;31.47;59.80;101336.59;5041296;28;67655;-41
2024/01/30 04:51:44;;;;;;;14.05;12.55;;;;;;;31.50;59.77;101329.91;5050654;28;70286;-39
2024/01/30 04:54:14;;;;;;;12.60;11.30;;;;;;;31.54;59.71;101331.16;5044344;28;65501;-41
2024/01/30 04:56:45;;;;;;;13.27;11.27;;;;;;;31.55;59.92;101327.38;5039489;28;69451;-42
2024/01/30 04:59:16;;;;;;;13.30;11.95;;;;;;;31.55;59.42;101317.38;5055317;28;64165;-42
2024/01/30 05:01:47;;;;;;;12.02;10.90;;;;;;;31.51;59.75;101302.59;5051679;28;71160;-40
2024/01/30 05:04:18;;;;;;;13.93;11.63;;;;;;;31.58;59.48;101311.50;5036345;28;65943;-40
2024/01/30 05:06:49;;;;;;;12.85;11.55;;;;;;;31.56;59.53;101308.19;5034319;28;70469;-39
2024/01/30 05:09:20;;;;;;;13.90;12.35;;;;;;;31.59;59.24;101302.34;5032069;28;66515;-40
2024/01/30 05:11:51;;;;;;;12.15;11.02;;;;;;;31.61;59.66;101297.53;5039697;28;70142;-41
2024/01/30 05:14:22;;;;;;;12.80;11.63;;;;;;;31.64;59.52;101292.72;5027915;28;66255;-39
2024/01/30 05:16:53;;;;;;;13.00;11.70;;;;;;;31.68;59.09;101285.81;5033765;28;70202;-39
2024/01/30 05:19:24;;;;;;;13.00;11.73;;;;;;;31.68;59.34;101274.97;5023820;28;66745;-39
2024/01/30 05:21:55;;;;;;;12.07;10.52;;;;;;;31.70;59.11;101270.97;5029184;28;69110;-40
2024/01/30 05:24:25;;;;;;;12.45;10.65;;;;;;;31.73;59.29;101254.31;5031648;28;66646;-39
2024/01/30 05:26:56;;;;;;;12.55;11.43;;;;;;;31.71;58.99;101250.13;5033680;28;69557;-39
2024/01/30 05:29:27;;;;;;;13.02;11.73;;;;;;;31.74;59.34;101242.41;5004078;28;65324;-39
2024/01/30 05:31:58;;;;;;;12.13;11.03;;;;;;;31.71;59.00;101229.28;5040468;28;70872;-40
2024/01/30 05:34:29;;;;;;;12.90;11.80;;;;;;;31.78;58.98;101235.47;5025952;28;64955;-41
2024/01/30 05:37:00;;;;;;;12.48;11.25;;;;;;;31.81;58.57;101223.34;5026360;28;69768;-39
2024/01/30 05:39:32;;;;;;;12.60;11.27;;;;;;;31.83;58.79;101224.81;5029329;28;66803;-41
2024/01/30 05:42:03;;;;;;;11.65;10.63;;;;;;;31.59;58.60;101177.63;5030830;28;70908;-39
2024/01/30 05:44:35;;;;;;;15.98;11.15;;;;;;;31.82;58.99;101208.75;5041685;28;66759;-41
2024/01/30 05:47:06;;;;;;;15.75;11.77;;;;;;;31.89;58.66;101211.41;5044762;28;68121;-40
2024/01/30 05:49:37;;;;;;;13.13;11.63;;;;;;;31.86;58.81;101199.13;5028472;28;66881;-40
2024/01/30 05:52:07;;;;;;;12.73;11.52;;;;;;;31.90;58.89;101199.50;5025364;28;70275;-40
2024/01/30 05:54:38;;;;;;;12.63;11.50;;;;;;;31.95;58.68;101202.41;5047402;28;66034;-40
2024/01/30 05:57:09;;;;;;;12.57;11.40;;;;;;;31.82;58.54;101168.06;5047251;28;70309;-40
2024/01/30 05:59:40;;;;;;;11.40;10.60;;;;;;;31.89;58.61;101166.13;5026352;28;66425;-42
2024/01/30 06:02:14;;;;;;;12.48;11.18;;;;;;;31.99;58.48;101177.34;5031674;28;71520;-40
2024/01/30 06:04:45;;;;;;;13.52;11.23;;;;;;;32.02;58.56;101182.34;5020247;28;66340;-40
2024/01/30 06:07:17;;;;;;;11.35;10.40;;;;;;;32.05;58.19;101165.59;5039221;28;70513;-40
2024/01/30 06:09:48;;;;;;;12.25;11.02;;;;;;;32.09;58.47;101165.16;5043336;28;65634;-40
2024/01/30 06:12:18;;;;;;;12.52;10.80;;;;;;;32.10;58.52;101161.41;5027924;28;69382;-39
2024/01/30 06:14:49;;;;;;;12.02;10.98;;;;;;;32.12;58.62;101159.28;5046051;28;65833;-39
2024/01/30 06:17:20;;;;;;;10.90;9.90;;;;;;;32.11;58.27;101146.78;5033841;28;69615;-40
2024/01/30 06:19:51;;;;;;;11.93;10.90;;;;;;;32.02;58.27;101130.78;5027182;28;65764;-40
2024/01/30 06:22:22;;;;;;;14.27;11.73;;;;;;;32.16;57.93;101145.06;5023481;28;70433;-40
2024/01/30 06:24:52;;;;;;;11.23;10.32;;;;;;;32.18;57.94;101131.25;5034504;28;65261;-40
2024/01/30 06:27:23;;;;;;;11.95;11.00;;;;;;;32.22;58.28;101137.91;5031436;28;71030;-40
2024/01/30 06:29:54;;;;;;;11.98;10.80;;;;;;;32.22;58.12;101127.06;5037400;28;66340;-40
2024/01/30 06:32:25;;;;;;;17.17;10.52;;;;;;;32.20;58.06;101115.56;5044411;28;70576;-40
2024/01/30 06:34:56;;;;;;;11.85;10.77;;;;;;;32.26;58.07;101120.97;5041021;28;66319;-41
2024/01/30 06:37:27;;;;;;;11.90;10.85;;;;;;;32.27;58.06;101119.06;5045427;28;70298;-42
2024/01/30 06:39:58;;;;;;;11.83;10.73;;;;;;;32.31;57.66;101122.97;5032468;28;66482;-40
2024/01/30 06:42:29;;;;;;;11.50;10.53;;;;;;;32.33;57.92;101101.88;5057459;28;69109;-39
2024/01/30 06:45:00;;;;;;;13.27;10.30;;;;;;;32.36;57.70;101106.84;5035341;28;65451;-40
2024/01/30 06:47:31;;;;;;;12.27;11.07;;;;;;;32.37;57.94;101094.94;5053866;28;69911;-40
2024/01/30 06:50:03;;;;;;;11.05;10.18;;;;;;;32.38;57.88;101093.88;5052124;28;66137;-40
2024/01/30 06:52:33;;;;;;;11.05;10.00;;;;;;;32.39;57.80;101090.09;5037179;28;70495;-40
2024/01/30 06:55:04;;;;;;;11.07;10.07;;;;;;;32.43;57.73;101082.34;5043895;28;66135;-41
2024/01/30 06:57:35;;;;;;;11.32;10.32;;;;;;;32.44;57.82;101076.69;5039991;28;69504;-40
2024/01/30 07:00:07;;;;;;;10.70;9.80;;;;;;;32.47;57.50;101076.28;5039362;28;66435;-40
2024/01/30 07:02:38;;;;;;;10.30;9.43;;;;;;;32.52;57.73;101066.63;5039209;28;70061;-40
2024/01/30 07:05:10;;;;;;;10.13;9.50;;;;;;;32.44;57.47;101049.53;5040131;28;66548;-40
2024/01/30 07:07:41;;;;;;;10.88;9.95;;;;;;;32.59;57.53;101067.34;5053358;28;70386;-39
2024/01/30 07:10:11;;;;;;;10.18;9.27;;;;;;;32.58;57.42;101052.97;5038659;28;65351;-40
2024/01/30 07:12:42;;;;;;;10.27;9.45;;;;;;;32.60;57.61;101053.56;5040391;28;69907;-40
2024/01/30 07:15:16;;;;;;;10.73;9.90;;;;;;;32.65;57.23;101050.16;5060350;28;66601;-40
2024/01/30 07:17:47;;;;;;;10.50;9.57;;;;;;;32.64;57.37;101043.06;5071805;28;70673;-40
2024/01/30 07:20:20;;;;;;;10.73;9.77;;;;;;;32.69;57.12;101035.88;5040113;28;66362;-40
2024/01/30 07:22:51;;;;;;;10.13;9.32;;;;;;;32.72;57.31;101040.88;5039487;28;70047;-39
2024/01/30 07:25:26;;;;;;;9.57;8.88;;;;;;;32.74;56.99;101043.38;5038814;28;65973;-40
2024/01/30 07:27:57;;;;;;;8.95;8.38;;;;;;;32.76;57.20;101034.97;5045088;28;69079;-40
2024/01/30 07:30:28;;;;;;;10.13;9.17;;;;;;;32.73;56.72;101036.25;5043374;28;67548;-39
2024/01/30 07:32:59;;;;;;;9.35;7.90;;;;;;;32.81;56.87;101033.22;5048055;28;68908;-39
2024/01/30 07:35:31;;;;;;;10.25;9.32;;;;;;;32.79;56.97;101023.63;5039890;28;65259;-41
2024/01/30 07:38:02;;;;;;;9.80;8.93;;;;;;;32.79;56.95;101019.06;5044417;28;71116;-41
2024/01/30 07:40:33;;;;;;;8.85;8.15;;;;;;;32.90;56.95;101036.44;5047898;28;66233;-40
2024/01/30 07:43:03;;;;;;;9.70;8.85;;;;;;;32.92;56.87;101024.28;5029966;28;70515;-40
2024/01/30 07:45:35;;;;;;;9.20;8.32;;;;;;;32.88;56.95;101014.94;5023312;28;65248;-39
2024/01/30 07:48:06;;;;;;;7.85;7.25;;;;;;;32.99;56.97;101009.75;5044076;28;69982;-41
2024/01/30 07:50:37;;;;;;;11.00;7.80;;;;;;;32.98;56.96;101000.78;5046700;28;66152;-40
2024/01/30 07:53:08;;;;;;;8.48;7.57;;;;;;;33.05;57.05;101006.19;5024249;28;70627;-40
2024/01/30 07:55:39;;;;;;;11.57;7.70;;;;;;;33.08;56.89;101006.53;5034646;28;65365;-40
2024/01/30 07:58:10;;;;;;;8.02;7.53;;;;;;;33.08;56.66;100994.84;5031462;28;69412;-40
2024/01/30 08:00:41;;;;;;;8.50;7.90;;;;;;;33.15;57.21;101006.41;5039308;28;66123;-41
2024/01/30 08:03:18;;;;;;;8.75;8.05;;;;;;;33.15;56.43;100996.41;5028887;28;70094;-41
2024/01/30 08:05:49;;;;;;;8.13;7.53;;;;;;;33.20;56.48;100992.97;5046869;28;66304;-43
2024/01/30 08:08:19;;;;;;;8.93;8.10;;;;;;;33.22;56.40;100990.03;5032776;28;70324;-40
2024/01/30 08:10:50;;;;;;;8.55;7.78;;;;;;;33.25;56.60;100984.94;5038696;28;66188;-40
2024/01/30 08:13:21;;;;;;;7.25;6.75;;;;;;;33.30;56.70;100982.34;5036397;28;70141;-40
2024/01/30 08:15:52;;;;;;;8.25;7.65;;;;;;;33.32;56.59;100985.66;5045871;28;66134;-40
2024/01/30 08:18:23;;;;;;;8.37;7.67;;;;;;;33.33;56.43;100979.16;5020296;28;69996;-41
2024/01/30 08:20:54;;;;;;;7.97;7.25;;;;;;;33.38;56.58;100984.72;5051001;28;65751;-40
2024/01/30 08:23:25;;;;;;;7.60;6.90;;;;;;;33.42;56.35;100984.25;5030432;28;70335;-41
2024/01/30 08:25:55;;;;;;;8.00;7.50;;;;;;;33.47;56.17;100989.81;5037823;28;65670;-40
2024/01/30 08:28:26;;;;;;;7.93;7.22;;;;;;;33.50;56.19;100986.63;5038319;28;70334;-40
2024/01/30 08:30:57;;;;;;;7.22;6.63;;;;;;;33.53;56.20;100991.63;5027424;28;66408;-40
2024/01/30 08:33:27;;;;;;;6.78;6.35;;;;;;;33.57;56.33;100992.78;5048340;28;70379;-41
2024/01/30 08:35:58;;;;;;;7.97;7.25;;;;;;;33.60;56.13;100986.91;5038070;28;65857;-40
2024/01/30 08:38:29;;;;;;;7.28;6.63;;;;;;;33.60;56.28;100981.47;5047676;28;69141;-39
2024/01/30 08:41:00;;;;;;;7.27;6.67;;;;;;;33.67;56.14;100987.59;5032807;28;67261;-41
2024/01/30 08:43:30;;;;;;;7.22;6.00;;;;;;;33.49;55.67;100957.75;5034853;28;69486;-43
2024/01/30 08:46:02;;;;;;;7.68;6.50;;;;;;;33.73;56.04;100986.63;5053005;28;66117;-40
2024/01/30 08:48:33;;;;;;;6.73;6.10;;;;;;;33.76;56.20;100990.78;5061961;28;71220;-40
2024/01/30 08:51:07;;;;;;;8.90;6.72;;;;;;;33.81;55.82;100999.88;5038571;28;65925;-46
2024/01/30 08:53:38;;;;;;;7.07;6.38;;;;;;;33.77;55.85;100982.38;5036555;28;70365;-40
2024/01/30 08:56:09;;;;;;;6.50;6.10;;;;;;;33.83;55.92;100991.50;5045199;28;65782;-40
2024/01/30 08:58:40;;;;;;;10.10;6.45;;;;;;;33.89;56.04;100995.97;5045702;28;69605;-42
2024/01/30 09:01:11;;;;;;;7.93;6.10;;;;;;;33.88;55.90;100982.59;5026040;28;65645;-40
2024/01/30 09:03:43;;;;;;;8.40;5.47;;;;;;;33.92;55.70;100983.78;5027336;28;69661;-40
2024/01/30 09:06:14;;;;;;;6.90;6.28;;;;;;;34.01;55.69;100993.25;5029646;28;65225;-39
2024/01/30 09:08:45;;;;;;;6.40;6.00;;;;;;;34.03;55.86;101000.09;5030821;28;70371;-39
2024/01/30 09:11:16;;;;;;;5.93;5.53;;;;;;;34.06;55.25;101008.88;5038864;28;66467;-39
2024/01/30 09:13:46;;;;;;;7.27;6.57;;;;;;;34.08;55.90;100993.97;5035687;28;70520;-40
2024/01/30 09:16:17;;;;;;;10.30;6.05;;;;;;;34.12;55.16;100999.75;5039255;28;66212;-41
2024/01/30 09:18:49;;;;;;;17.23;7.33;;;;;;;34.00;55.35;101007.94;5040486;28;70255;-41
2024/01/30 09:21:20;;;;;;;10.73;6.55;;;;;;;33.89;55.61;101023.19;5028282;28;66178;-40
2024/01/30 09:23:52;;;;;;;21.88;7.30;;;;;;;33.73;55.93;101015.75;5029055;28;69823;-41
2024/01/30 09:26:23;;;;;;;13.55;7.53;;;;;;;33.71;55.77;101017.88;5026303;28;65257;-39
2024/01/30 09:28:55;;;;;;;8.20;7.20;;;;;;;33.63;55.99;101024.50;5039612;28;70217;-40
2024/01/30 09:31:27;;;;;;;9.13;7.37;;;;;;;33.57;56.29;101022.69;5021112;28;67792;-39
2024/01/30 09:33:57;;;;;;;21.33;7.67;;;;;;;33.52;56.11;101022.56;5021847;28;70381;-39
2024/01/30 09:36:28;;;;;;;14.10;7.22;;;;;;;33.49;56.57;101028.47;5023423;28;65879;-43
2024/01/30 09:39:00;;;;;;;11.18;6.82;;;;;;;33.51;56.86;101031.78;5038741;28;69625;-41
2024/01/30 09:41:34;;;;;;;11.65;6.60;;;;;;;33.13;56.86;100976.78;5033936;28;66669;-42
2024/01/30 09:44:08;;;;;;;9.55;7.07;;;;;;;33.41;56.69;101029.66;5035148;28;69661;-41
2024/01/30 09:46:40;;;;;;;9.68;6.53;;;;;;;33.44;56.56;101031.06;5023215;28;66544;-39
2024/01/30 09:49:12;;;;;;;14.02;6.53;;;;;;;33.45;56.92;101049.03;5020399;28;69825;-41
2024/01/30 09:51:46;;;;;;;10.48;6.20;;;;;;;33.36;57.01;101035.78;5024138;28;66574;-42
2024/01/30 09:54:18;;;;;;;12.57;6.00;;;;;;;33.37;56.97;101042.88;5030786;28;69184;-41
2024/01/30 09:56:49;;;;;;;11.95;5.70;;;;;;;33.35;57.13;101045.00;5034970;28;66657;-42
2024/01/30 09:59:20;;;;;;;10.77;6.63;;;;;;;33.18;57.27;101014.09;5020281;28;69474;-41
2024/01/30 10:01:52;;;;;;;10.00;6.47;;;;;;;33.32;57.40;101042.75;5039124;28;66432;-41
2024/01/30 10:04:23;;;;;;;15.90;5.78;;;;;;;33.33;57.11;101041.69;5026517;28;69176;-40
2024/01/30 10:06:54;;;;;;;9.10;5.70;;;;;;;33.34;57.21;101051.50;5029400;28;66555;-41
2024/01/30 10:09:25;;;;;;;7.63;4.90;;;;;;;33.33;57.17;101051.75;5033493;28;70477;-41
2024/01/30 10:11:56;;;;;;;11.45;4.90;;;;;;;33.29;57.32;101045.09;5046588;28;66181;-41
2024/01/30 10:14:27;;;;;;;8.20;4.10;;;;;;;33.31;57.35;101049.25;5023795;28;70307;-41
2024/01/30 10:16:59;;;;;;;9.82;3.97;;;;;;;33.34;57.33;101053.38;5032240;28;65814;-41
2024/01/30 10:19:30;;;;;;;4.25;3.83;;;;;;;33.34;57.29;101059.66;5033267;28;70398;-40
2024/01/30 10:22:01;;;;;;;10.73;3.60;;;;;;;33.29;57.17;101051.38;5045557;28;65509;-41
2024/01/30 10:24:34;;;;;;;4.15;3.45;;;;;;;32.97;57.52;101003.75;5030784;28;70230;-41
2024/01/30 10:27:06;;;;;;;6.78;3.70;;;;;;;33.29;57.49;101058.69;5028909;28;66153;-40
2024/01/30 10:29:37;;;;;;;7.53;3.90;;;;;;;33.33;58.14;101066.16;5027110;28;70134;-41
2024/01/30 10:32:09;;;;;;;6.13;3.70;;;;;;;33.32;57.97;101072.66;5031932;28;66276;-40
2024/01/30 10:34:39;;;;;;;8.23;3.77;;;;;;;33.28;58.19;101071.47;5031181;28;70610;-40
2024/01/30 10:37:17;;;;;;;5.45;3.33;;;;;;;32.91;57.88;101016.38;5035529;28;66238;-42
2024/01/30 10:39:50;;;;;;;4.30;3.67;;;;;;;33.20;58.09;101054.66;5037242;28;70378;-40
2024/01/30 10:42:27;;;;;;;6.60;4.13;;;;;;;33.24;58.17;101073.00;5049611;28;66404;-41
2024/01/30 10:45:13;;;;;;;6.78;3.45;;;;;;;33.27;57.92;101069.81;5039267;28;69992;-40
2024/01/30 10:47:50;;;;;;;9.73;4.78;;;;;;;33.19;58.21;101067.44;5034284;28;66655;-42
2024/01/30 10:50:24;;;;;;;9.30;4.63;;;;;;;33.23;58.20;101074.03;5049055;28;70029;-40
2024/01/30 10:52:56;;;;;;;5.82;4.07;;;;;;;33.23;58.37;101078.66;5028804;28;66435;-40
2024/01/30 10:55:29;;;;;;;5.80;3.75;;;;;;;33.22;58.37;101077.00;5034936;28;70453;-43
2024/01/30 10:58:00;;;;;;;6.38;4.20;;;;;;;33.21;58.49;101084.34;5030859;28;65614;-39
2024/01/30 11:00:33;;;;;;;17.40;4.77;;;;;;;33.18;58.67;101082.06;5034341;28;69643;-40
2024/01/30 11:03:05;;;;;;;5.38;4.25;;;;;;;33.17;58.66;101085.84;5046673;28;65363;-43
2024/01/30 11:05:36;;;;;;;5.72;4.13;;;;;;;33.08;59.58;101068.22;5032575;28;69593;-40
2024/01/30 11:08:14;;;;;;;12.50;4.30;;;;;;;33.15;58.92;101085.25;5027158;28;65287;-40
2024/01/30 11:10:57;;;;;;;5.20;4.53;;;;;;;33.13;59.04;101090.94;5035619;28;69174;-41
2024/01/30 11:13:30;;;;;;;5.13;4.10;;;;;;;33.15;59.01;101090.69;5022200;28;66269;-42
2024/01/30 11:16:05;;;;;;;12.27;3.72;;;;;;;32.80;59.03;101042.44;5029193;28;70257;-41
2024/01/30 11:18:37;;;;;;;5.18;3.53;;;;;;;33.13;59.08;101106.41;5026595;28;66243;-42
2024/01/30 11:21:08;;;;;;;5.07;4.57;;;;;;;33.12;59.30;101115.59;5045495;28;70273;-41
2024/01/30 11:23:39;;;;;;;7.55;4.13;;;;;;;33.09;59.28;101110.63;5048271;28;65644;-42
2024/01/30 11:26:13;;;;;;;8.60;5.70;;;;;;;33.05;59.98;101120.31;5042036;28;70221;-40
2024/01/30 11:28:52;;;;;;;8.50;5.20;;;;;;;33.06;59.90;101124.69;5025254;28;66882;-42
2024/01/30 11:31:23;;;;;;;8.70;6.68;;;;;;;33.01;60.71;101129.97;5039116;28;69921;-41
2024/01/30 11:33:55;;;;;;;10.70;6.75;;;;;;;32.99;60.27;101134.78;5034732;28;65981;-41